sensor_id;sensor_type;location;lat;lon;timestamp;P1;durP1;ratioP1;P2;durP2;ratioP2
12842;SDS011;35724;49.324;-123.118;2024-02-21T00:05:02;3.40;;;2.50;;
12842;SDS011;35724;49.324;-123.118;2024-02-21T00:15:10;1.80;;;1.70;;
12842;SDS011;35724;49.324;-123.118;2024-02-21T00:25:19;2.25;;;1.80;;
12842;SDS011;35724;49.324;-123.118;2024-02-21T00:35:27;1.70;;;1.60;;
12842;SDS011;35724;49.324;-123.118;2024-02-21T00:45:36;1.50;;;1.25;;
12842;SDS011;35724;49.324;-123.118;2024-02-21T00:55:43;2.17;;;1.80;;
12842;SDS011;35724;49.324;-123.118;2024-02-21T01:05:52;1.90;;;1.80;;
12842;SDS011;35724;49.324;-123.118;2024-02-21T01:15:59;2.10;;;1.85;;
12842;SDS011;35724;49.324;-123.118;2024-02-21T01:26:08;2.22;;;2.03;;
12842;SDS011;35724;49.324;-123.118;2024-02-21T01:36:18;2.80;;;1.77;;
12842;SDS011;35724;49.324;-123.118;2024-02-21T01:46:27;1.90;;;1.67;;
12842;SDS011;35724;49.324;-123.118;2024-02-21T01:56:34;2.03;;;1.83;;
12842;SDS011;35724;49.324;-123.118;2024-02-21T02:06:43;1.88;;;1.70;;
12842;SDS011;35724;49.324;-123.118;2024-02-21T02:16:50;2.30;;;1.98;;
12842;SDS011;35724;49.324;-123.118;2024-02-21T02:26:59;2.22;;;2.00;;
12842;SDS011;35724;49.324;-123.118;2024-02-21T02:37:07;2.05;;;1.95;;
12842;SDS011;35724;49.324;-123.118;2024-02-21T02:47:16;1.60;;;1.50;;
12842;SDS011;35724;49.324;-123.118;2024-02-21T02:57:23;1.88;;;1.77;;
12842;SDS011;35724;49.324;-123.118;2024-02-21T03:07:32;2.65;;;2.40;;
12842;SDS011;35724;49.324;-123.118;2024-02-21T03:17:39;2.58;;;2.05;;
12842;SDS011;35724;49.324;-123.118;2024-02-21T03:27:48;3.55;;;2.95;;
12842;SDS011;35724;49.324;-123.118;2024-02-21T03:37:56;2.92;;;2.63;;
12842;SDS011;35724;49.324;-123.118;2024-02-21T03:48:05;2.25;;;2.15;;
12842;SDS011;35724;49.324;-123.118;2024-02-21T03:58:13;2.30;;;2.10;;
12842;SDS011;35724;49.324;-123.118;2024-02-21T04:08:22;2.80;;;2.17;;
12842;SDS011;35724;49.324;-123.118;2024-02-21T04:18:29;2.28;;;2.08;;
12842;SDS011;35724;49.324;-123.118;2024-02-21T04:28:38;1.60;;;1.50;;
12842;SDS011;35724;49.324;-123.118;2024-02-21T04:38:46;2.17;;;2.00;;
12842;SDS011;35724;49.324;-123.118;2024-02-21T04:48:55;2.95;;;2.08;;
12842;SDS011;35724;49.324;-123.118;2024-02-21T04:59:03;2.53;;;2.10;;
12842;SDS011;35724;49.324;-123.118;2024-02-21T05:09:12;3.40;;;2.30;;
12842;SDS011;35724;49.324;-123.118;2024-02-21T05:19:19;2.40;;;2.10;;
12842;SDS011;35724;49.324;-123.118;2024-02-21T05:29:28;2.47;;;2.00;;
12842;SDS011;35724;49.324;-123.118;2024-02-21T05:39:35;2.78;;;2.10;;
12842;SDS011;35724;49.324;-123.118;2024-02-21T05:49:44;2.25;;;1.90;;
12842;SDS011;35724;49.324;-123.118;2024-02-21T05:59:51;1.80;;;1.70;;
12842;SDS011;35724;49.324;-123.118;2024-02-21T06:10:00;3.88;;;2.20;;
12842;SDS011;35724;49.324;-123.118;2024-02-21T06:20:08;2.22;;;2.00;;
12842;SDS011;35724;49.324;-123.118;2024-02-21T06:30:17;2.97;;;1.90;;
12842;SDS011;35724;49.324;-123.118;2024-02-21T06:40:25;2.45;;;2.05;;
12842;SDS011;35724;49.324;-123.118;2024-02-21T06:50:34;2.75;;;2.00;;
12842;SDS011;35724;49.324;-123.118;2024-02-21T07:00:42;5.05;;;3.05;;
12842;SDS011;35724;49.324;-123.118;2024-02-21T07:10:51;6.53;;;3.20;;
12842;SDS011;35724;49.324;-123.118;2024-02-21T07:20:58;3.63;;;2.53;;
12842;SDS011;35724;49.324;-123.118;2024-02-21T07:31:07;4.43;;;3.63;;
12842;SDS011;35724;49.324;-123.118;2024-02-21T07:41:15;3.03;;;2.40;;
12842;SDS011;35724;49.324;-123.118;2024-02-21T07:51:24;2.90;;;2.30;;
12842;SDS011;35724;49.324;-123.118;2024-02-21T08:01:34;4.00;;;2.78;;
12842;SDS011;35724;49.324;-123.118;2024-02-21T08:11:43;5.55;;;3.55;;
12842;SDS011;35724;49.324;-123.118;2024-02-21T08:21:51;3.40;;;2.95;;
12842;SDS011;35724;49.324;-123.118;2024-02-21T08:32:00;3.33;;;3.03;;
12842;SDS011;35724;49.324;-123.118;2024-02-21T08:42:08;2.88;;;2.60;;
12842;SDS011;35724;49.324;-123.118;2024-02-21T08:52:17;2.97;;;2.03;;
12842;SDS011;35724;49.324;-123.118;2024-02-21T09:02:24;2.00;;;1.73;;
12842;SDS011;35724;49.324;-123.118;2024-02-21T09:12:38;2.70;;;2.08;;
12842;SDS011;35724;49.324;-123.118;2024-02-21T09:22:45;3.17;;;1.30;;
12842;SDS011;35724;49.324;-123.118;2024-02-21T09:32:54;0.85;;;0.85;;
12842;SDS011;35724;49.324;-123.118;2024-02-21T09:43:04;1.50;;;1.40;;
12842;SDS011;35724;49.324;-123.118;2024-02-21T09:53:13;2.35;;;1.23;;
12842;SDS011;35724;49.324;-123.118;2024-02-21T10:03:21;1.40;;;1.30;;
12842;SDS011;35724;49.324;-123.118;2024-02-21T10:13:31;1.20;;;1.10;;
12842;SDS011;35724;49.324;-123.118;2024-02-21T10:23:45;1.08;;;1.00;;
12842;SDS011;35724;49.324;-123.118;2024-02-21T10:33:55;2.08;;;1.20;;
12842;SDS011;35724;49.324;-123.118;2024-02-21T10:44:05;0.88;;;0.85;;
12842;SDS011;35724;49.324;-123.118;2024-02-21T10:54:21;2.30;;;1.13;;
12842;SDS011;35724;49.324;-123.118;2024-02-21T11:04:40;1.40;;;1.30;;
12842;SDS011;35724;49.324;-123.118;2024-02-21T11:14:51;1.25;;;1.15;;
12842;SDS011;35724;49.324;-123.118;2024-02-21T11:25:06;2.70;;;1.40;;
12842;SDS011;35724;49.324;-123.118;2024-02-21T11:35:20;5.13;;;1.70;;
12842;SDS011;35724;49.324;-123.118;2024-02-21T11:45:29;2.13;;;1.67;;
12842;SDS011;35724;49.324;-123.118;2024-02-21T11:55:39;2.60;;;1.83;;
12842;SDS011;35724;49.324;-123.118;2024-02-21T12:05:47;1.83;;;1.60;;
12842;SDS011;35724;49.324;-123.118;2024-02-21T12:15:56;2.13;;;1.60;;
12842;SDS011;35724;49.324;-123.118;2024-02-21T12:26:03;1.95;;;1.48;;
12842;SDS011;35724;49.324;-123.118;2024-02-21T12:36:13;2.47;;;1.65;;
12842;SDS011;35724;49.324;-123.118;2024-02-21T12:46:22;4.85;;;1.63;;
12842;SDS011;35724;49.324;-123.118;2024-02-21T12:56:31;2.28;;;1.30;;
12842;SDS011;35724;49.324;-123.118;2024-02-21T13:06:38;2.45;;;1.20;;
12842;SDS011;35724;49.324;-123.118;2024-02-21T13:16:50;1.75;;;1.20;;
12842;SDS011;35724;49.324;-123.118;2024-02-21T13:26:58;1.00;;;0.90;;
12842;SDS011;35724;49.324;-123.118;2024-02-21T13:37:07;2.90;;;1.30;;
12842;SDS011;35724;49.324;-123.118;2024-02-21T13:47:15;1.85;;;1.00;;
12842;SDS011;35724;49.324;-123.118;2024-02-21T13:57:25;2.10;;;1.17;;
12842;SDS011;35724;49.324;-123.118;2024-02-21T14:07:32;2.70;;;1.50;;
12842;SDS011;35724;49.324;-123.118;2024-02-21T14:17:41;1.95;;;1.55;;
12842;SDS011;35724;49.324;-123.118;2024-02-21T14:27:51;1.77;;;1.50;;
12842;SDS011;35724;49.324;-123.118;2024-02-21T14:38:00;1.73;;;1.48;;
12842;SDS011;35724;49.324;-123.118;2024-02-21T14:48:08;3.88;;;1.52;;
12842;SDS011;35724;49.324;-123.118;2024-02-21T14:58:18;2.75;;;1.30;;
12842;SDS011;35724;49.324;-123.118;2024-02-21T15:08:26;2.05;;;1.33;;
12842;SDS011;35724;49.324;-123.118;2024-02-21T15:18:34;2.15;;;1.35;;
12842;SDS011;35724;49.324;-123.118;2024-02-21T15:28:42;1.35;;;1.20;;
12842;SDS011;35724;49.324;-123.118;2024-02-21T15:38:51;1.73;;;1.20;;
12842;SDS011;35724;49.324;-123.118;2024-02-21T15:48:59;1.70;;;1.08;;
12842;SDS011;35724;49.324;-123.118;2024-02-21T15:59:08;3.00;;;0.90;;
12842;SDS011;35724;49.324;-123.118;2024-02-21T16:09:16;2.15;;;1.00;;
12842;SDS011;35724;49.324;-123.118;2024-02-21T16:19:25;1.17;;;1.00;;
12842;SDS011;35724;49.324;-123.118;2024-02-21T16:29:32;1.88;;;1.10;;
12842;SDS011;35724;49.324;-123.118;2024-02-21T16:39:42;0.80;;;0.77;;
12842;SDS011;35724;49.324;-123.118;2024-02-21T16:49:50;2.05;;;0.90;;
12842;SDS011;35724;49.324;-123.118;2024-02-21T16:59:59;0.90;;;0.90;;
12842;SDS011;35724;49.324;-123.118;2024-02-21T17:10:09;1.58;;;1.20;;
12842;SDS011;35724;49.324;-123.118;2024-02-21T17:20:18;3.63;;;2.15;;
12842;SDS011;35724;49.324;-123.118;2024-02-21T17:30:26;3.05;;;1.80;;
12842;SDS011;35724;49.324;-123.118;2024-02-21T17:40:34;2.90;;;2.17;;
12842;SDS011;35724;49.324;-123.118;2024-02-21T17:50:42;2.80;;;2.00;;
12842;SDS011;35724;49.324;-123.118;2024-02-21T18:00:51;3.65;;;2.60;;
12842;SDS011;35724;49.324;-123.118;2024-02-21T18:11:01;4.22;;;2.53;;
12842;SDS011;35724;49.324;-123.118;2024-02-21T18:21:11;2.60;;;2.38;;
12842;SDS011;35724;49.324;-123.118;2024-02-21T18:31:18;2.60;;;2.00;;
12842;SDS011;35724;49.324;-123.118;2024-02-21T18:41:27;2.38;;;2.15;;
12842;SDS011;35724;49.324;-123.118;2024-02-21T18:51:35;3.05;;;2.60;;
12842;SDS011;35724;49.324;-123.118;2024-02-21T19:01:45;3.50;;;3.20;;
12842;SDS011;35724;49.324;-123.118;2024-02-21T19:11:52;3.35;;;2.70;;
12842;SDS011;35724;49.324;-123.118;2024-02-21T19:22:01;5.15;;;4.65;;
12842;SDS011;35724;49.324;-123.118;2024-02-21T19:32:09;3.65;;;2.92;;
12842;SDS011;35724;49.324;-123.118;2024-02-21T19:42:18;3.72;;;1.80;;
12842;SDS011;35724;49.324;-123.118;2024-02-21T19:52:26;3.00;;;2.38;;
12842;SDS011;35724;49.324;-123.118;2024-02-21T20:02:36;4.90;;;2.60;;
12842;SDS011;35724;49.324;-123.118;2024-02-21T20:12:44;2.30;;;2.10;;
12842;SDS011;35724;49.324;-123.118;2024-02-21T20:22:53;2.72;;;2.17;;
12842;SDS011;35724;49.324;-123.118;2024-02-21T20:33:02;1.95;;;1.85;;
12842;SDS011;35724;49.324;-123.118;2024-02-21T20:43:12;1.38;;;1.00;;
12842;SDS011;35724;49.324;-123.118;2024-02-21T20:53:21;0.60;;;0.60;;
12842;SDS011;35724;49.324;-123.118;2024-02-21T21:03:34;3.05;;;0.82;;
12842;SDS011;35724;49.324;-123.118;2024-02-21T21:13:44;0.95;;;0.70;;
12842;SDS011;35724;49.324;-123.118;2024-02-21T21:23:53;0.60;;;0.60;;
12842;SDS011;35724;49.324;-123.118;2024-02-21T21:34:00;0.50;;;0.50;;
12842;SDS011;35724;49.324;-123.118;2024-02-21T21:44:09;0.50;;;0.50;;
12842;SDS011;35724;49.324;-123.118;2024-02-21T21:54:18;0.60;;;0.60;;
12842;SDS011;35724;49.324;-123.118;2024-02-21T22:04:27;0.50;;;0.50;;
12842;SDS011;35724;49.324;-123.118;2024-02-21T22:14:34;1.42;;;0.60;;
12842;SDS011;35724;49.324;-123.118;2024-02-21T22:24:43;1.77;;;0.65;;
12842;SDS011;35724;49.324;-123.118;2024-02-21T22:34:51;0.60;;;0.60;;
12842;SDS011;35724;49.324;-123.118;2024-02-21T22:45:00;0.60;;;0.50;;
12842;SDS011;35724;49.324;-123.118;2024-02-21T22:55:08;1.20;;;0.40;;
12842;SDS011;35724;49.324;-123.118;2024-02-21T23:05:17;0.60;;;0.50;;
12842;SDS011;35724;49.324;-123.118;2024-02-21T23:15:27;0.60;;;0.50;;
12842;SDS011;35724;49.324;-123.118;2024-02-21T23:25:35;0.70;;;0.70;;
12842;SDS011;35724;49.324;-123.118;2024-02-21T23:35:46;1.48;;;0.70;;
12842;SDS011;35724;49.324;-123.118;2024-02-21T23:45:55;0.60;;;0.52;;
12842;SDS011;35724;49.324;-123.118;2024-02-21T23:56:06;0.60;;;0.57;;
